createdAt,value
2023-11-14T00:00:05.494Z,10.40
2023-11-14T00:03:49.202Z,10.40
2023-11-14T00:07:31.102Z,10.40
2023-11-14T00:11:13.054Z,10.40
2023-11-14T00:14:54.886Z,10.50
2023-11-14T00:18:36.839Z,10.50
2023-11-14T00:22:18.599Z,10.50
2023-11-14T00:26:00.595Z,10.60
2023-11-14T00:29:42.904Z,10.60
2023-11-14T00:33:24.794Z,10.60
2023-11-14T00:37:06.751Z,10.60
2023-11-14T00:40:48.600Z,10.60
2023-11-14T00:44:47.121Z,10.60
2023-11-14T00:48:29.196Z,10.50
2023-11-14T00:52:10.999Z,10.50
2023-11-14T00:55:52.830Z,10.50
2023-11-14T00:59:34.640Z,10.50
2023-11-14T01:03:16.609Z,10.50
2023-11-14T01:06:59.113Z,10.50
2023-11-14T01:10:41.495Z,10.50
2023-11-14T01:14:23.862Z,10.40
2023-11-14T01:18:06.118Z,10.40
2023-11-14T01:21:48.866Z,10.40
2023-11-14T01:25:30.736Z,10.40
2023-11-14T01:29:12.779Z,10.40
2023-11-14T01:32:54.683Z,10.40
2023-11-14T01:36:39.088Z,10.40
2023-11-14T01:40:20.941Z,10.50
2023-11-14T01:44:03.774Z,10.60
2023-11-14T01:47:48.814Z,10.70
2023-11-14T01:51:30.719Z,10.70
2023-11-14T01:55:13.570Z,10.70
2023-11-14T01:58:57.111Z,10.70
2023-11-14T02:02:40.746Z,10.80
2023-11-14T02:06:22.968Z,10.80
2023-11-14T02:10:05.901Z,10.80
2023-11-14T02:13:47.801Z,10.70
2023-11-14T02:17:29.935Z,10.70
2023-11-14T02:21:14.088Z,10.70
2023-11-14T02:24:59.168Z,10.70
2023-11-14T02:28:41.039Z,10.70
2023-11-14T02:32:23.009Z,10.70
2023-11-14T02:36:06.710Z,10.80
2023-11-14T02:39:48.561Z,10.90
2023-11-14T02:43:30.378Z,11.00
2023-11-14T02:47:13.125Z,11.00
2023-11-14T02:50:57.006Z,11.00
2023-11-14T02:54:39.102Z,11.00
2023-11-14T02:58:21.188Z,10.90
2023-11-14T03:02:03.362Z,10.90
2023-11-14T03:05:46.180Z,10.90
2023-11-14T03:09:27.998Z,10.80
2023-11-14T03:13:10.520Z,10.80
2023-11-14T03:16:52.524Z,10.80
2023-11-14T03:20:35.375Z,10.80
2023-11-14T03:24:17.647Z,10.70
2023-11-14T03:28:00.151Z,10.80
2023-11-14T03:31:42.216Z,10.80
2023-11-14T03:35:24.134Z,10.80
2023-11-14T03:39:06.013Z,10.70
2023-11-14T03:42:47.867Z,10.70
2023-11-14T03:46:29.656Z,10.70
2023-11-14T03:50:11.990Z,10.70
2023-11-14T03:53:53.820Z,10.70
2023-11-14T03:57:35.658Z,10.70
2023-11-14T04:01:17.954Z,10.70
2023-11-14T04:04:59.811Z,10.80
2023-11-14T04:08:41.529Z,10.80
2023-11-14T04:12:23.888Z,10.80
2023-11-14T04:16:09.543Z,10.90
2023-11-14T04:19:52.242Z,11.00
2023-11-14T04:23:35.970Z,11.10
2023-11-14T04:27:17.911Z,11.20
2023-11-14T04:30:59.767Z,11.20
2023-11-14T04:34:41.531Z,11.20
2023-11-14T04:38:23.514Z,11.20
2023-11-14T04:42:09.339Z,11.10
2023-11-14T04:45:51.188Z,11.00
2023-11-14T04:49:33.122Z,10.90
2023-11-14T04:53:15.127Z,10.90
2023-11-14T04:56:56.961Z,10.80
2023-11-14T05:00:38.764Z,10.70
2023-11-14T05:04:20.491Z,10.70
2023-11-14T05:08:03.033Z,10.70
2023-11-14T05:11:44.849Z,10.70
2023-11-14T05:15:26.755Z,10.70
2023-11-14T05:19:11.512Z,10.70
2023-11-14T05:22:53.314Z,10.70
2023-11-14T05:26:35.319Z,10.70
2023-11-14T05:30:17.555Z,10.80
2023-11-14T05:33:59.397Z,10.90
2023-11-14T05:37:41.586Z,10.90
2023-11-14T05:41:23.515Z,10.90
2023-11-14T05:45:06.014Z,10.90
2023-11-14T05:48:47.992Z,10.90
2023-11-14T05:52:29.926Z,10.90
2023-11-14T05:56:12.281Z,10.80
2023-11-14T05:59:56.814Z,10.80
2023-11-14T06:03:38.693Z,10.80
2023-11-14T06:07:20.647Z,10.70
2023-11-14T06:11:02.860Z,10.70
2023-11-14T06:14:44.644Z,10.60
2023-11-14T06:18:28.711Z,10.60
2023-11-14T06:22:10.470Z,10.50
2023-11-14T06:25:52.623Z,10.50
2023-11-14T06:29:34.427Z,10.50
2023-11-14T06:33:16.384Z,10.50
2023-11-14T06:36:58.351Z,10.40
2023-11-14T06:40:40.591Z,10.40
2023-11-14T06:44:22.429Z,10.40
2023-11-14T06:48:04.757Z,10.40
2023-11-14T06:51:46.661Z,10.50
2023-11-14T06:55:29.446Z,10.60
2023-11-14T06:59:11.705Z,10.70
2023-11-14T07:02:53.544Z,10.80
2023-11-14T07:06:35.477Z,10.80
2023-11-14T07:10:17.701Z,10.90
2023-11-14T07:14:00.461Z,11.00
2023-11-14T07:17:42.415Z,11.10
2023-11-14T07:21:25.039Z,11.20
2023-11-14T07:25:08.051Z,11.20
2023-11-14T07:28:49.882Z,11.20
2023-11-14T07:32:32.842Z,11.30
2023-11-14T07:36:14.667Z,11.30
2023-11-14T07:39:57.718Z,11.40
2023-11-14T07:43:40.362Z,11.50
2023-11-14T07:47:22.278Z,11.50
2023-11-14T07:51:04.456Z,11.50
2023-11-14T07:54:46.288Z,11.60
2023-11-14T07:58:30.380Z,11.60
2023-11-14T08:02:12.241Z,11.70
2023-11-14T08:05:54.049Z,11.70
2023-11-14T08:09:35.796Z,11.80
2023-11-14T08:13:17.900Z,11.80
2023-11-14T08:16:59.764Z,11.80
2023-11-14T08:20:41.521Z,11.90
2023-11-14T08:24:24.914Z,11.90
2023-11-14T08:28:08.275Z,12.00
2023-11-14T08:31:50.156Z,12.10
2023-11-14T08:35:33.190Z,12.10
2023-11-14T08:39:15.116Z,12.10
2023-11-14T08:42:59.622Z,12.20
2023-11-14T08:46:42.074Z,12.20
2023-11-14T08:50:24.718Z,12.20
2023-11-14T08:54:06.663Z,12.20
2023-11-14T08:57:48.537Z,12.30
2023-11-14T09:01:30.336Z,12.30
2023-11-14T09:05:12.235Z,12.30
2023-11-14T09:08:54.036Z,12.40
2023-11-14T09:12:35.844Z,12.40
2023-11-14T09:16:18.628Z,12.40
2023-11-14T09:20:00.536Z,12.40
2023-11-14T09:23:42.344Z,12.40
2023-11-14T09:27:25.053Z,12.40
2023-11-14T09:31:08.597Z,12.20
2023-11-14T09:34:50.903Z,12.00
2023-11-14T09:38:36.403Z,11.80
2023-11-14T09:42:19.428Z,11.70
2023-11-14T09:46:02.275Z,11.50
2023-11-14T09:49:44.969Z,11.40
2023-11-14T09:53:31.342Z,11.30
2023-11-14T09:57:16.346Z,11.20
2023-11-14T10:00:58.231Z,11.20
2023-11-14T10:04:41.009Z,11.10
2023-11-14T10:08:23.194Z,11.20
2023-11-14T10:12:17.833Z,11.10
2023-11-14T10:16:18.082Z,11.10
2023-11-14T10:20:10.910Z,11.10
2023-11-14T10:23:54.901Z,11.10
2023-11-14T10:27:38.183Z,11.10
2023-11-14T10:31:38.172Z,11.10
2023-11-14T10:35:20.542Z,11.00
2023-11-14T10:39:05.043Z,11.00
2023-11-14T10:42:54.195Z,11.00
2023-11-14T10:46:36.306Z,10.90
2023-11-14T10:50:32.924Z,10.90
2023-11-14T10:54:15.107Z,10.90
2023-11-14T10:57:57.095Z,10.90
2023-11-14T11:01:38.981Z,10.80
2023-11-14T11:05:28.328Z,10.80
2023-11-14T11:09:17.030Z,10.80
2023-11-14T11:13:00.831Z,10.80
2023-11-14T11:16:48.337Z,10.80
2023-11-14T11:20:33.747Z,10.80
2023-11-14T11:24:20.300Z,10.70
2023-11-14T11:28:35.357Z,10.70
2023-11-14T11:32:29.432Z,10.70
2023-11-14T11:36:26.440Z,10.70
2023-11-14T11:40:08.896Z,10.70
2023-11-14T11:44:07.226Z,10.70
2023-11-14T11:47:49.215Z,10.80
2023-11-14T11:51:31.048Z,10.80
2023-11-14T11:55:16.756Z,10.90
2023-11-14T11:58:58.545Z,11.00
2023-11-14T12:02:41.793Z,11.10
2023-11-14T12:06:23.682Z,11.20
2023-11-14T12:10:06.676Z,11.20
2023-11-14T12:13:54.352Z,11.40
2023-11-14T12:17:37.193Z,11.50
2023-11-14T12:21:20.395Z,11.60
2023-11-14T12:25:02.430Z,11.70
2023-11-14T12:28:44.919Z,11.70
2023-11-14T12:32:26.847Z,11.90
2023-11-14T12:36:09.065Z,12.10
2023-11-14T12:40:08.130Z,12.20
2023-11-14T12:44:02.040Z,12.60
2023-11-14T12:47:49.444Z,12.90
2023-11-14T12:51:32.858Z,13.00
2023-11-14T12:55:15.172Z,13.10
2023-11-14T12:58:56.949Z,13.20
2023-11-14T13:02:40.526Z,13.20
2023-11-14T13:06:23.518Z,13.20
2023-11-14T13:10:08.739Z,13.20
2023-11-14T13:13:50.649Z,13.20
2023-11-14T13:17:33.216Z,13.20
2023-11-14T13:21:16.057Z,13.10
2023-11-14T13:24:58.062Z,13.10
2023-11-14T13:28:40.803Z,13.20
2023-11-14T13:32:22.776Z,13.20
2023-11-14T13:36:08.083Z,13.30
2023-11-14T13:39:49.882Z,13.30
2023-11-14T13:43:31.828Z,13.30
2023-11-14T13:47:14.307Z,13.30
2023-11-14T13:50:56.216Z,13.20
2023-11-14T13:54:38.057Z,13.10
2023-11-14T13:58:20.349Z,13.10
2023-11-14T14:02:03.440Z,13.10
2023-11-14T14:05:45.377Z,13.20
2023-11-14T14:09:27.241Z,13.10
2023-11-14T14:13:09.250Z,12.90
2023-11-14T14:16:52.137Z,12.90
2023-11-14T14:20:34.427Z,12.80
2023-11-14T14:24:17.081Z,12.80
2023-11-14T14:27:58.878Z,12.70
2023-11-14T14:31:41.426Z,12.60
2023-11-14T14:35:23.344Z,12.40
2023-11-14T14:39:05.413Z,12.30
2023-11-14T14:42:47.197Z,12.30
2023-11-14T14:46:29.707Z,12.30
2023-11-14T14:50:12.090Z,12.30
2023-11-14T14:53:53.874Z,12.30
2023-11-14T14:57:35.673Z,12.30
2023-11-14T15:01:18.628Z,12.20
2023-11-14T15:05:00.634Z,12.20
2023-11-14T15:08:42.540Z,12.20
2023-11-14T15:12:24.528Z,12.20
2023-11-14T15:16:07.094Z,12.10
2023-11-14T15:19:49.072Z,12.10
2023-11-14T15:23:30.890Z,12.10
2023-11-14T15:27:24.272Z,12.00
2023-11-14T15:31:07.387Z,12.00
2023-11-14T15:34:50.286Z,12.00
2023-11-14T15:38:32.108Z,11.90
2023-11-14T15:42:14.217Z,11.80
2023-11-14T15:45:55.987Z,11.80
2023-11-14T15:49:37.716Z,11.90
2023-11-14T15:53:19.619Z,11.90
2023-11-14T15:57:02.387Z,12.00
2023-11-14T16:00:44.778Z,12.10
2023-11-14T16:04:26.558Z,12.00
2023-11-14T16:08:08.656Z,12.00
2023-11-14T16:11:50.501Z,12.00
2023-11-14T16:15:32.419Z,12.00
2023-11-14T16:19:14.179Z,11.90
2023-11-14T16:22:56.370Z,11.80
2023-11-14T16:26:38.225Z,11.80
2023-11-14T16:30:21.896Z,11.70
2023-11-14T16:34:04.086Z,11.70
2023-11-14T16:37:45.924Z,11.60
2023-11-14T16:41:27.873Z,11.50
2023-11-14T16:45:11.533Z,11.50
2023-11-14T16:48:53.842Z,11.40
2023-11-14T16:52:35.682Z,11.30
2023-11-14T16:56:17.453Z,11.30
2023-11-14T16:59:59.465Z,11.20
2023-11-14T17:03:41.655Z,11.20
2023-11-14T17:07:23.480Z,11.20
2023-11-14T17:11:05.334Z,11.20
2023-11-14T17:14:47.557Z,11.10
2023-11-14T17:18:29.366Z,11.00
2023-11-14T17:22:11.460Z,11.00
2023-11-14T17:25:53.304Z,10.90
2023-11-14T17:29:35.140Z,10.90
2023-11-14T17:33:17.907Z,10.80
2023-11-14T17:36:59.855Z,10.70
2023-11-14T17:40:42.031Z,10.70
2023-11-14T17:44:24.086Z,10.70
2023-11-14T17:48:09.401Z,10.60
2023-11-14T17:51:53.989Z,10.60
2023-11-14T17:55:35.898Z,10.60
2023-11-14T17:59:17.983Z,10.50
2023-11-14T18:03:01.542Z,10.40
2023-11-14T18:06:45.046Z,10.40
2023-11-14T18:10:26.815Z,10.40
2023-11-14T18:14:08.668Z,10.30
2023-11-14T18:17:50.774Z,10.30
2023-11-14T18:21:32.610Z,10.20
2023-11-14T18:25:14.471Z,10.20
2023-11-14T18:28:56.211Z,10.20
2023-11-14T18:32:39.456Z,10.30
2023-11-14T18:36:22.680Z,10.40
2023-11-14T18:40:06.374Z,10.40
2023-11-14T18:43:48.265Z,10.40
2023-11-14T18:47:30.192Z,10.40
2023-11-14T18:51:13.003Z,10.50
2023-11-14T18:54:56.624Z,10.60
2023-11-14T18:58:40.270Z,10.70
2023-11-14T19:02:22.837Z,10.80
2023-11-14T19:06:05.267Z,10.90
2023-11-14T19:09:48.638Z,11.00
2023-11-14T19:13:30.452Z,11.10
2023-11-14T19:17:12.991Z,11.10
2023-11-14T19:21:24.775Z,11.20
2023-11-14T19:25:02.229Z,11.30
2023-11-14T19:28:46.213Z,11.30
2023-11-14T19:32:28.096Z,11.40
2023-11-14T19:36:10.692Z,11.30
2023-11-14T19:39:53.007Z,11.30
2023-11-14T19:43:35.186Z,11.30
2023-11-14T19:47:18.346Z,11.30
2023-11-14T19:51:00.197Z,11.30
2023-11-14T19:54:42.043Z,11.30
2023-11-14T19:58:23.839Z,11.30
2023-11-14T20:02:05.675Z,11.30
2023-11-14T20:05:47.775Z,11.30
2023-11-14T20:09:32.246Z,11.30
2023-11-14T20:13:16.497Z,11.30
2023-11-14T20:16:58.295Z,11.20
2023-11-14T20:20:40.199Z,11.30
2023-11-14T20:24:22.255Z,11.20
2023-11-14T20:28:04.809Z,11.20
2023-11-14T20:31:46.643Z,11.30
2023-11-14T20:35:28.692Z,11.30
2023-11-14T20:39:16.444Z,11.30
2023-11-14T20:42:59.025Z,11.30
2023-11-14T20:46:40.941Z,11.20
2023-11-14T20:50:23.386Z,11.20
2023-11-14T20:54:07.419Z,11.20
2023-11-14T20:57:52.090Z,11.20
2023-11-14T21:01:35.144Z,11.20
2023-11-14T21:05:17.137Z,11.20
2023-11-14T21:09:00.450Z,11.20
2023-11-14T21:12:42.358Z,11.20
2023-11-14T21:16:24.506Z,11.20
2023-11-14T21:20:06.801Z,11.20
2023-11-14T21:23:48.565Z,11.20
2023-11-14T21:27:36.978Z,11.20
2023-11-14T21:31:27.576Z,11.20
2023-11-14T21:35:09.657Z,11.20
2023-11-14T21:38:51.745Z,11.20
2023-11-14T21:42:34.653Z,11.10
2023-11-14T21:46:17.002Z,11.00
2023-11-14T21:49:58.922Z,11.00
2023-11-14T21:53:41.288Z,10.90
2023-11-14T21:57:23.184Z,10.90
2023-11-14T22:01:05.405Z,10.90
2023-11-14T22:04:48.687Z,10.90
2023-11-14T22:08:30.601Z,10.90
2023-11-14T22:12:12.504Z,10.80
2023-11-14T22:15:54.676Z,10.70
2023-11-14T22:19:36.561Z,10.60
2023-11-14T22:23:18.383Z,10.70
2023-11-14T22:27:00.272Z,10.70
2023-11-14T22:30:42.157Z,10.70
2023-11-14T22:34:23.961Z,10.80
2023-11-14T22:38:05.742Z,10.80
2023-11-14T22:41:47.480Z,10.90
2023-11-14T22:45:29.893Z,11.00
2023-11-14T22:49:12.140Z,11.00
2023-11-14T22:52:53.966Z,11.10
2023-11-14T22:56:35.845Z,11.10
2023-11-14T23:00:34.303Z,11.20
2023-11-14T23:04:16.721Z,11.20
2023-11-14T23:07:58.574Z,11.20
2023-11-14T23:11:40.426Z,11.20
2023-11-14T23:15:24.735Z,11.10
2023-11-14T23:19:09.583Z,11.20
2023-11-14T23:22:52.400Z,11.10
2023-11-14T23:26:34.355Z,11.20
2023-11-14T23:30:16.312Z,11.10
2023-11-14T23:33:58.145Z,11.10
2023-11-14T23:37:41.143Z,11.10
2023-11-14T23:41:23.770Z,11.00
2023-11-14T23:45:07.630Z,11.00
2023-11-14T23:48:50.948Z,11.00
2023-11-14T23:52:32.763Z,11.00
2023-11-14T23:56:14.665Z,11.00
2023-11-14T23:59:56.706Z,11.00
